sensor_id;sensor_type;location;lat;lon;timestamp;pressure;altitude;pressure_sealevel;temperature;humidity
11440;BME280;5776;51.814;4.510;2023-03-01T00:01:15;103253.50;;;4.45;91.94
11440;BME280;5776;51.814;4.510;2023-03-01T00:03:41;103247.47;;;4.43;91.99
11440;BME280;5776;51.814;4.510;2023-03-01T00:06:08;103246.81;;;4.41;92.29
11440;BME280;5776;51.814;4.510;2023-03-01T00:08:34;103252.59;;;4.38;93.35
11440;BME280;5776;51.814;4.510;2023-03-01T00:11:06;103250.94;;;4.37;92.58
11440;BME280;5776;51.814;4.510;2023-03-01T00:13:34;103249.25;;;4.36;92.74
11440;BME280;5776;51.814;4.510;2023-03-01T00:16:08;103252.97;;;4.35;92.58
11440;BME280;5776;51.814;4.510;2023-03-01T00:18:34;103246.75;;;4.35;92.77
11440;BME280;5776;51.814;4.510;2023-03-01T00:21:00;103244.25;;;4.33;93.27
11440;BME280;5776;51.814;4.510;2023-03-01T00:23:27;103253.13;;;4.33;92.45
11440;BME280;5776;51.814;4.510;2023-03-01T00:25:54;103247.13;;;4.31;93.42
11440;BME280;5776;51.814;4.510;2023-03-01T00:28:20;103248.97;;;4.31;93.33
11440;BME280;5776;51.814;4.510;2023-03-01T00:30:47;103240.63;;;4.26;92.99
11440;BME280;5776;51.814;4.510;2023-03-01T00:33:13;103243.31;;;4.26;92.77
11440;BME280;5776;51.814;4.510;2023-03-01T00:35:38;103239.63;;;4.27;92.97
11440;BME280;5776;51.814;4.510;2023-03-01T00:38:04;103240.44;;;4.27;93.41
11440;BME280;5776;51.814;4.510;2023-03-01T00:40:32;103245.00;;;4.27;92.80
11440;BME280;5776;51.814;4.510;2023-03-01T00:42:58;103239.97;;;4.24;93.86
11440;BME280;5776;51.814;4.510;2023-03-01T00:45:26;103244.53;;;4.23;92.78
11440;BME280;5776;51.814;4.510;2023-03-01T00:47:52;103242.66;;;4.24;93.23
11440;BME280;5776;51.814;4.510;2023-03-01T00:50:19;103249.06;;;4.23;92.86
11440;BME280;5776;51.814;4.510;2023-03-01T00:52:45;103244.72;;;4.22;93.70
11440;BME280;5776;51.814;4.510;2023-03-01T00:55:11;103245.06;;;4.19;93.21
11440;BME280;5776;51.814;4.510;2023-03-01T00:57:37;103243.41;;;4.18;93.12
11440;BME280;5776;51.814;4.510;2023-03-01T01:00:05;103247.78;;;4.19;93.78
11440;BME280;5776;51.814;4.510;2023-03-01T01:02:32;103239.69;;;4.19;93.11
11440;BME280;5776;51.814;4.510;2023-03-01T01:04:59;103238.03;;;4.18;93.18
11440;BME280;5776;51.814;4.510;2023-03-01T01:07:25;103232.00;;;4.16;93.75
11440;BME280;5776;51.814;4.510;2023-03-01T01:09:51;103235.72;;;4.15;92.92
11440;BME280;5776;51.814;4.510;2023-03-01T01:12:17;103236.94;;;4.12;93.39
11440;BME280;5776;51.814;4.510;2023-03-01T01:14:42;103233.59;;;4.10;92.72
11440;BME280;5776;51.814;4.510;2023-03-01T01:17:08;103231.06;;;4.08;92.91
11440;BME280;5776;51.814;4.510;2023-03-01T01:19:34;103227.78;;;4.06;93.59
11440;BME280;5776;51.814;4.510;2023-03-01T01:22:00;103224.88;;;4.08;92.70
11440;BME280;5776;51.814;4.510;2023-03-01T01:24:26;103213.66;;;4.04;92.72
11440;BME280;5776;51.814;4.510;2023-03-01T01:26:52;103215.69;;;4.02;92.17
11440;BME280;5776;51.814;4.510;2023-03-01T01:29:18;103210.31;;;4.02;92.60
11440;BME280;5776;51.814;4.510;2023-03-01T01:31:44;103211.53;;;4.00;92.40
11440;BME280;5776;51.814;4.510;2023-03-01T01:34:15;103204.47;;;3.99;92.14
11440;BME280;5776;51.814;4.510;2023-03-01T01:36:42;103202.63;;;3.99;92.33
11440;BME280;5776;51.814;4.510;2023-03-01T01:39:08;103194.91;;;3.96;92.54
11440;BME280;5776;51.814;4.510;2023-03-01T01:41:40;103194.28;;;3.94;92.17
11440;BME280;5776;51.814;4.510;2023-03-01T01:44:20;103186.03;;;3.96;92.27
11440;BME280;5776;51.814;4.510;2023-03-01T01:47:21;103186.22;;;3.94;91.95
11440;BME280;5776;51.814;4.510;2023-03-01T01:49:53;103180.66;;;3.96;92.78
11440;BME280;5776;51.814;4.510;2023-03-01T01:52:20;103172.56;;;3.96;92.23
11440;BME280;5776;51.814;4.510;2023-03-01T01:54:53;103172.56;;;3.96;92.84
11440;BME280;5776;51.814;4.510;2023-03-01T01:57:25;103169.06;;;3.95;93.01
11440;BME280;5776;51.814;4.510;2023-03-01T01:59:55;103166.53;;;3.94;92.62
11440;BME280;5776;51.814;4.510;2023-03-01T02:02:23;103170.44;;;3.91;92.55
11440;BME280;5776;51.814;4.510;2023-03-01T02:04:52;103173.34;;;3.89;92.68
11440;BME280;5776;51.814;4.510;2023-03-01T02:07:22;103169.16;;;3.87;92.61
11440;BME280;5776;51.814;4.510;2023-03-01T02:09:51;103164.44;;;3.89;93.09
11440;BME280;5776;51.814;4.510;2023-03-01T02:12:21;103164.63;;;3.87;92.57
11440;BME280;5776;51.814;4.510;2023-03-01T02:14:48;103162.09;;;3.86;92.92
11440;BME280;5776;51.814;4.510;2023-03-01T02:17:15;103161.09;;;3.87;92.93
11440;BME280;5776;51.814;4.510;2023-03-01T02:22:43;103162.47;;;3.83;92.89
11440;BME280;5776;51.814;4.510;2023-03-01T02:30:34;103152.38;;;3.85;92.95
11440;BME280;5776;51.814;4.510;2023-03-01T02:33:02;103150.06;;;3.82;93.31
11440;BME280;5776;51.814;4.510;2023-03-01T02:35:32;103149.25;;;3.81;93.72
11440;BME280;5776;51.814;4.510;2023-03-01T02:37:58;103146.72;;;3.80;93.46
11440;BME280;5776;51.814;4.510;2023-03-01T02:40:28;103141.53;;;3.78;94.28
11440;BME280;5776;51.814;4.510;2023-03-01T02:42:57;103139.69;;;3.79;93.94
11440;BME280;5776;51.814;4.510;2023-03-01T02:45:25;103137.56;;;3.74;94.56
11440;BME280;5776;51.814;4.510;2023-03-01T02:47:55;103142.94;;;3.74;94.08
11440;BME280;5776;51.814;4.510;2023-03-01T02:51:01;103148.50;;;3.73;94.31
11440;BME280;5776;51.814;4.510;2023-03-01T02:53:43;103140.44;;;3.73;94.60
11440;BME280;5776;51.814;4.510;2023-03-01T02:56:14;103140.81;;;3.70;94.12
11440;BME280;5776;51.814;4.510;2023-03-01T02:58:43;103136.09;;;3.72;93.60
11440;BME280;5776;51.814;4.510;2023-03-01T03:01:18;103144.31;;;3.70;94.68
11440;BME280;5776;51.814;4.510;2023-03-01T03:03:45;103138.28;;;3.68;94.41
11440;BME280;5776;51.814;4.510;2023-03-01T03:06:11;103148.22;;;3.67;94.70
11440;BME280;5776;51.814;4.510;2023-03-01T03:08:37;103142.19;;;3.65;93.80
11440;BME280;5776;51.814;4.510;2023-03-01T03:11:03;103139.69;;;3.64;94.24
11440;BME280;5776;51.814;4.510;2023-03-01T03:13:29;103134.13;;;3.65;93.60
11440;BME280;5776;51.814;4.510;2023-03-01T03:15:56;103136.63;;;3.67;94.39
11440;BME280;5776;51.814;4.510;2023-03-01T03:18:23;103133.13;;;3.66;94.25
11440;BME280;5776;51.814;4.510;2023-03-01T03:20:52;103137.19;;;3.62;93.29
11440;BME280;5776;51.814;4.510;2023-03-01T03:23:20;103135.72;;;3.60;93.63
11440;BME280;5776;51.814;4.510;2023-03-01T03:25:49;103126.16;;;3.57;93.32
11440;BME280;5776;51.814;4.510;2023-03-01T03:28:15;103129.50;;;3.59;93.97
11440;BME280;5776;51.814;4.510;2023-03-01T03:30:42;103131.53;;;3.57;92.98
11440;BME280;5776;51.814;4.510;2023-03-01T03:33:09;103124.50;;;3.56;92.73
11440;BME280;5776;51.814;4.510;2023-03-01T03:35:47;103123.84;;;3.54;92.88
11440;BME280;5776;51.814;4.510;2023-03-01T03:38:15;103122.00;;;3.55;92.65
11440;BME280;5776;51.814;4.510;2023-03-01T03:40:51;103114.47;;;3.50;92.69
11440;BME280;5776;51.814;4.510;2023-03-01T03:43:20;103120.69;;;3.51;92.37
11440;BME280;5776;51.814;4.510;2023-03-01T03:45:48;103115.22;;;3.44;92.89
11440;BME280;5776;51.814;4.510;2023-03-01T03:48:15;103117.25;;;3.42;92.34
11440;BME280;5776;51.814;4.510;2023-03-01T03:50:42;103122.63;;;3.42;92.18
11440;BME280;5776;51.814;4.510;2023-03-01T03:53:12;103113.94;;;3.40;91.94
11440;BME280;5776;51.814;4.510;2023-03-01T03:55:39;103108.38;;;3.41;92.59
11440;BME280;5776;51.814;4.510;2023-03-01T03:58:07;103115.56;;;3.41;91.79
11440;BME280;5776;51.814;4.510;2023-03-01T04:00:36;103108.72;;;3.38;91.53
11440;BME280;5776;51.814;4.510;2023-03-01T04:03:03;103108.72;;;3.38;92.54
11440;BME280;5776;51.814;4.510;2023-03-01T04:05:29;103099.84;;;3.38;92.36
11440;BME280;5776;51.814;4.510;2023-03-01T04:07:55;103105.41;;;3.36;91.65
11440;BME280;5776;51.814;4.510;2023-03-01T04:10:29;103100.22;;;3.35;91.67
11440;BME280;5776;51.814;4.510;2023-03-01T04:12:56;103102.91;;;3.35;91.75
11440;BME280;5776;51.814;4.510;2023-03-01T04:15:24;103113.81;;;3.33;91.63
11440;BME280;5776;51.814;4.510;2023-03-01T04:17:54;103107.63;;;3.33;91.68
11440;BME280;5776;51.814;4.510;2023-03-01T04:20:23;103116.69;;;3.32;91.16
11440;BME280;5776;51.814;4.510;2023-03-01T04:23:03;103116.22;;;3.28;91.68
11440;BME280;5776;51.814;4.510;2023-03-01T04:25:44;103110.69;;;3.30;90.81
11440;BME280;5776;51.814;4.510;2023-03-01T04:28:11;103104.28;;;3.31;91.49
11440;BME280;5776;51.814;4.510;2023-03-01T04:30:38;103109.03;;;3.29;90.95
11440;BME280;5776;51.814;4.510;2023-03-01T04:33:09;103111.06;;;3.27;90.71
11440;BME280;5776;51.814;4.510;2023-03-01T04:35:36;103107.88;;;3.23;90.99
11440;BME280;5776;51.814;4.510;2023-03-01T04:38:03;103103.72;;;3.20;91.42
11440;BME280;5776;51.814;4.510;2023-03-01T04:40:29;103105.56;;;3.20;90.77
11440;BME280;5776;51.814;4.510;2023-03-01T04:42:55;103095.19;;;3.17;90.65
11440;BME280;5776;51.814;4.510;2023-03-01T04:45:21;103095.00;;;3.18;91.40
11440;BME280;5776;51.814;4.510;2023-03-01T04:47:47;103093.16;;;3.19;90.47
11440;BME280;5776;51.814;4.510;2023-03-01T04:50:15;103094.16;;;3.18;90.71
11440;BME280;5776;51.814;4.510;2023-03-01T04:52:43;103089.00;;;3.16;91.20
11440;BME280;5776;51.814;4.510;2023-03-01T04:55:10;103081.94;;;3.15;90.69
11440;BME280;5776;51.814;4.510;2023-03-01T04:57:36;103075.75;;;3.15;90.58
11440;BME280;5776;51.814;4.510;2023-03-01T05:00:03;103073.59;;;3.10;90.49
11440;BME280;5776;51.814;4.510;2023-03-01T05:02:47;103066.09;;;3.06;90.28
11440;BME280;5776;51.814;4.510;2023-03-01T05:05:15;103072.66;;;3.03;90.45
11440;BME280;5776;51.814;4.510;2023-03-01T05:07:41;103072.50;;;3.05;90.22
11440;BME280;5776;51.814;4.510;2023-03-01T05:10:07;103073.69;;;3.02;90.19
11440;BME280;5776;51.814;4.510;2023-03-01T05:12:33;103065.63;;;3.02;90.60
11440;BME280;5776;51.814;4.510;2023-03-01T05:14:59;103056.94;;;3.00;90.07
11440;BME280;5776;51.814;4.510;2023-03-01T05:17:25;103054.63;;;2.97;90.01
11440;BME280;5776;51.814;4.510;2023-03-01T05:19:50;103056.00;;;2.93;89.95
11440;BME280;5776;51.814;4.510;2023-03-01T05:22:16;103058.50;;;2.94;90.20
11440;BME280;5776;51.814;4.510;2023-03-01T05:24:42;103040.09;;;2.91;89.96
11440;BME280;5776;51.814;4.510;2023-03-01T05:27:08;103039.88;;;2.93;89.66
11440;BME280;5776;51.814;4.510;2023-03-01T05:29:34;103034.50;;;2.93;90.41
11440;BME280;5776;51.814;4.510;2023-03-01T05:32:01;103029.53;;;2.90;90.16
11440;BME280;5776;51.814;4.510;2023-03-01T05:34:36;103032.19;;;2.90;90.31
11440;BME280;5776;51.814;4.510;2023-03-01T05:37:02;103023.69;;;2.86;89.88
11440;BME280;5776;51.814;4.510;2023-03-01T05:39:29;103024.69;;;2.85;90.26
11440;BME280;5776;51.814;4.510;2023-03-01T05:41:58;103027.00;;;2.88;90.09
11440;BME280;5776;51.814;4.510;2023-03-01T05:44:25;103022.22;;;2.84;90.32
11440;BME280;5776;51.814;4.510;2023-03-01T05:46:52;103023.22;;;2.83;89.39
11440;BME280;5776;51.814;4.510;2023-03-01T05:49:18;103024.59;;;2.78;89.81
11440;BME280;5776;51.814;4.510;2023-03-01T05:51:48;103034.69;;;2.76;89.69
11440;BME280;5776;51.814;4.510;2023-03-01T05:54:14;103029.97;;;2.78;89.83
11440;BME280;5776;51.814;4.510;2023-03-01T05:56:40;103034.47;;;2.78;89.72
11440;BME280;5776;51.814;4.510;2023-03-01T05:59:06;103039.03;;;2.77;89.97
11440;BME280;5776;51.814;4.510;2023-03-01T06:01:33;103026.63;;;2.76;89.76
11440;BME280;5776;51.814;4.510;2023-03-01T06:03:59;103030.81;;;2.79;90.37
11440;BME280;5776;51.814;4.510;2023-03-01T06:06:26;103025.59;;;2.77;90.22
11440;BME280;5776;51.814;4.510;2023-03-01T06:08:53;103021.28;;;2.76;90.36
11440;BME280;5776;51.814;4.510;2023-03-01T06:11:20;103021.59;;;2.73;89.94
11440;BME280;5776;51.814;4.510;2023-03-01T06:13:46;103026.97;;;2.73;90.04
11440;BME280;5776;51.814;4.510;2023-03-01T06:16:13;103020.53;;;2.83;90.65
11440;BME280;5776;51.814;4.510;2023-03-01T06:18:40;103016.25;;;2.73;89.71
11440;BME280;5776;51.814;4.510;2023-03-01T06:21:06;103017.97;;;1.43;92.76
11440;BME280;5776;51.814;4.510;2023-03-01T06:23:33;103018.03;;;1.97;93.11
11440;BME280;5776;51.814;4.510;2023-03-01T06:26:00;103031.19;;;2.76;93.38
11440;BME280;5776;51.814;4.510;2023-03-01T06:28:26;103035.00;;;3.11;90.97
11440;BME280;5776;51.814;4.510;2023-03-01T06:30:51;103031.13;;;3.29;90.57
11440;BME280;5776;51.814;4.510;2023-03-01T06:33:19;103038.44;;;3.35;91.02
11440;BME280;5776;51.814;4.510;2023-03-01T06:35:50;103041.22;;;3.41;90.92
11440;BME280;5776;51.814;4.510;2023-03-01T06:38:17;103047.22;;;3.43;90.99
11440;BME280;5776;51.814;4.510;2023-03-01T06:40:45;103044.53;;;3.43;91.20
11440;BME280;5776;51.814;4.510;2023-03-01T06:43:16;103049.56;;;3.46;91.11
11440;BME280;5776;51.814;4.510;2023-03-01T06:45:42;103051.38;;;3.46;90.58
11440;BME280;5776;51.814;4.510;2023-03-01T06:48:08;103053.06;;;3.47;91.29
11440;BME280;5776;51.814;4.510;2023-03-01T06:50:34;103052.84;;;3.49;90.82
11440;BME280;5776;51.814;4.510;2023-03-01T06:53:01;103050.00;;;3.50;91.15
11440;BME280;5776;51.814;4.510;2023-03-01T06:55:27;103049.63;;;3.53;91.33
11440;BME280;5776;51.814;4.510;2023-03-01T06:57:55;103040.56;;;3.54;91.58
11440;BME280;5776;51.814;4.510;2023-03-01T07:00:22;103045.94;;;3.54;90.95
11440;BME280;5776;51.814;4.510;2023-03-01T07:02:48;103039.13;;;3.58;91.55
11440;BME280;5776;51.814;4.510;2023-03-01T07:05:14;103042.84;;;3.57;91.01
11440;BME280;5776;51.814;4.510;2023-03-01T07:07:40;103041.81;;;3.58;91.48
11440;BME280;5776;51.814;4.510;2023-03-01T07:10:06;103035.44;;;3.59;91.66
11440;BME280;5776;51.814;4.510;2023-03-01T07:12:32;103044.16;;;3.61;91.95
11440;BME280;5776;51.814;4.510;2023-03-01T07:14:58;103040.25;;;3.64;91.29
11440;BME280;5776;51.814;4.510;2023-03-01T07:17:24;103041.16;;;3.71;91.85
11440;BME280;5776;51.814;4.510;2023-03-01T07:19:50;103041.16;;;3.71;91.50
11440;BME280;5776;51.814;4.510;2023-03-01T07:22:16;103046.34;;;3.73;91.36
11440;BME280;5776;51.814;4.510;2023-03-01T07:24:43;103034.13;;;3.70;91.73
11440;BME280;5776;51.814;4.510;2023-03-01T07:27:08;103037.84;;;3.69;91.60
11440;BME280;5776;51.814;4.510;2023-03-01T07:29:34;103031.63;;;3.68;91.79
11440;BME280;5776;51.814;4.510;2023-03-01T07:32:03;103040.31;;;3.71;91.51
11440;BME280;5776;51.814;4.510;2023-03-01T07:34:29;103030.41;;;3.71;92.15
11440;BME280;5776;51.814;4.510;2023-03-01T07:36:55;103039.31;;;3.72;91.78
11440;BME280;5776;51.814;4.510;2023-03-01T07:39:21;103029.19;;;3.74;91.46
11440;BME280;5776;51.814;4.510;2023-03-01T07:41:49;103032.53;;;3.76;92.31
11440;BME280;5776;51.814;4.510;2023-03-01T07:44:15;103030.50;;;3.78;92.37
11440;BME280;5776;51.814;4.510;2023-03-01T07:46:42;103045.41;;;3.80;92.15
11440;BME280;5776;51.814;4.510;2023-03-01T07:49:08;103033.00;;;3.79;91.27
11440;BME280;5776;51.814;4.510;2023-03-01T07:51:34;103041.91;;;3.80;92.25
11440;BME280;5776;51.814;4.510;2023-03-01T07:54:00;103034.66;;;3.80;91.86
11440;BME280;5776;51.814;4.510;2023-03-01T07:56:26;103039.66;;;3.83;91.54
11440;BME280;5776;51.814;4.510;2023-03-01T07:58:52;103033.44;;;3.83;91.95
11440;BME280;5776;51.814;4.510;2023-03-01T08:01:19;103038.66;;;3.84;91.73
11440;BME280;5776;51.814;4.510;2023-03-01T08:03:46;103043.19;;;3.84;91.60
11440;BME280;5776;51.814;4.510;2023-03-01T08:06:14;103043.81;;;3.86;91.53
11440;BME280;5776;51.814;4.510;2023-03-01T08:08:40;103044.84;;;3.85;92.55
11440;BME280;5776;51.814;4.510;2023-03-01T08:11:07;103038.44;;;3.86;92.71
11440;BME280;5776;51.814;4.510;2023-03-01T08:13:35;103046.31;;;3.87;91.70
11440;BME280;5776;51.814;4.510;2023-03-01T08:16:09;103051.88;;;3.86;92.25
11440;BME280;5776;51.814;4.510;2023-03-01T08:18:35;103047.16;;;3.88;92.09
11440;BME280;5776;51.814;4.510;2023-03-01T08:21:07;103049.44;;;3.91;92.77
11440;BME280;5776;51.814;4.510;2023-03-01T08:23:32;103046.75;;;3.91;92.13
11440;BME280;5776;51.814;4.510;2023-03-01T08:26:10;103049.28;;;3.93;91.70
11440;BME280;5776;51.814;4.510;2023-03-01T08:28:38;103040.72;;;3.67;91.16
11440;BME280;5776;51.814;4.510;2023-03-01T08:33:40;103042.16;;;3.34;91.85
11440;BME280;5776;51.814;4.510;2023-03-01T08:36:06;103043.16;;;3.33;91.73
11440;BME280;5776;51.814;4.510;2023-03-01T08:38:33;103036.50;;;3.29;91.42
11440;BME280;5776;51.814;4.510;2023-03-01T08:41:02;103040.34;;;3.41;91.80
11440;BME280;5776;51.814;4.510;2023-03-01T08:43:29;103035.91;;;3.48;90.47
11440;BME280;5776;51.814;4.510;2023-03-01T08:45:55;103037.88;;;3.54;90.13
11440;BME280;5776;51.814;4.510;2023-03-01T08:48:21;103043.78;;;3.50;92.45
11440;BME280;5776;51.814;4.510;2023-03-01T08:50:47;103029.81;;;3.54;91.20
11440;BME280;5776;51.814;4.510;2023-03-01T08:53:13;103031.84;;;3.52;90.79
11440;BME280;5776;51.814;4.510;2023-03-01T08:55:39;103021.19;;;3.59;91.47
11440;BME280;5776;51.814;4.510;2023-03-01T08:58:05;103018.94;;;3.62;91.19
11440;BME280;5776;51.814;4.510;2023-03-01T09:00:31;103018.91;;;3.77;92.15
11440;BME280;5776;51.814;4.510;2023-03-01T09:03:01;103025.66;;;3.88;91.56
11440;BME280;5776;51.814;4.510;2023-03-01T09:05:26;103020.13;;;3.96;92.19
11440;BME280;5776;51.814;4.510;2023-03-01T09:07:52;103009.22;;;3.98;91.91
11440;BME280;5776;51.814;4.510;2023-03-01T09:10:18;103008.00;;;4.00;92.26
11440;BME280;5776;51.814;4.510;2023-03-01T09:12:44;102998.91;;;4.01;92.10
11440;BME280;5776;51.814;4.510;2023-03-01T09:15:10;103000.19;;;4.05;91.79
11440;BME280;5776;51.814;4.510;2023-03-01T09:17:36;102992.75;;;4.07;92.17
11440;BME280;5776;51.814;4.510;2023-03-01T09:20:01;102998.13;;;4.07;92.01
11440;BME280;5776;51.814;4.510;2023-03-01T09:22:28;103003.34;;;4.09;92.94
11440;BME280;5776;51.814;4.510;2023-03-01T09:24:54;103002.13;;;4.11;92.70
11440;BME280;5776;51.814;4.510;2023-03-01T09:27:22;103000.91;;;4.14;91.92
11440;BME280;5776;51.814;4.510;2023-03-01T09:29:48;102993.66;;;4.15;92.95
11440;BME280;5776;51.814;4.510;2023-03-01T09:32:14;102993.66;;;4.15;92.20
11440;BME280;5776;51.814;4.510;2023-03-01T09:34:40;102993.44;;;4.16;92.43
11440;BME280;5776;51.814;4.510;2023-03-01T09:37:24;102984.16;;;4.19;92.32
11440;BME280;5776;51.814;4.510;2023-03-01T09:39:50;102983.84;;;4.28;93.39
11440;BME280;5776;51.814;4.510;2023-03-01T09:42:16;102976.09;;;4.40;93.21
11440;BME280;5776;51.814;4.510;2023-03-01T09:44:48;102985.56;;;4.36;93.50
11440;BME280;5776;51.814;4.510;2023-03-01T09:47:21;102977.69;;;4.35;92.68
11440;BME280;5776;51.814;4.510;2023-03-01T09:49:59;102986.66;;;4.42;92.12
11440;BME280;5776;51.814;4.510;2023-03-01T09:52:34;102987.69;;;4.41;91.31
11440;BME280;5776;51.814;4.510;2023-03-01T09:55:08;102987.75;;;4.47;91.55
11440;BME280;5776;51.814;4.510;2023-03-01T09:57:55;102981.31;;;4.48;91.58
11440;BME280;5776;51.814;4.510;2023-03-01T10:00:42;102977.56;;;4.43;91.62
11440;BME280;5776;51.814;4.510;2023-03-01T10:03:16;102972.59;;;4.46;90.29
11440;BME280;5776;51.814;4.510;2023-03-01T10:10:44;102961.13;;;4.59;89.05
11440;BME280;5776;51.814;4.510;2023-03-01T10:16:05;102962.84;;;4.67;88.15
11440;BME280;5776;51.814;4.510;2023-03-01T10:18:35;102961.00;;;4.74;87.33
11440;BME280;5776;51.814;4.510;2023-03-01T10:21:12;102962.91;;;4.80;87.95
11440;BME280;5776;51.814;4.510;2023-03-01T10:23:39;102963.34;;;4.84;86.96
11440;BME280;5776;51.814;4.510;2023-03-01T10:31:23;102951.81;;;4.96;86.96
11440;BME280;5776;51.814;4.510;2023-03-01T10:33:54;102954.97;;;5.00;87.55
11440;BME280;5776;51.814;4.510;2023-03-01T10:36:22;102962.03;;;5.08;87.61
11440;BME280;5776;51.814;4.510;2023-03-01T10:38:53;102949.44;;;5.15;86.49
11440;BME280;5776;51.814;4.510;2023-03-01T10:41:21;102946.75;;;5.15;86.82
11440;BME280;5776;51.814;4.510;2023-03-01T10:43:52;102945.72;;;5.16;86.87
11440;BME280;5776;51.814;4.510;2023-03-01T10:46:30;102937.22;;;5.19;86.33
11440;BME280;5776;51.814;4.510;2023-03-01T10:49:18;102935.78;;;5.23;87.58
11440;BME280;5776;51.814;4.510;2023-03-01T10:51:47;102935.19;;;5.28;87.20
11440;BME280;5776;51.814;4.510;2023-03-01T10:54:32;102934.19;;;5.35;87.83
11440;BME280;5776;51.814;4.510;2023-03-01T10:57:01;102924.28;;;5.43;87.08
11440;BME280;5776;51.814;4.510;2023-03-01T10:59:33;102916.81;;;5.45;86.22
11440;BME280;5776;51.814;4.510;2023-03-01T11:02:22;102912.03;;;5.47;86.33
11440;BME280;5776;51.814;4.510;2023-03-01T11:08:06;102903.38;;;5.58;87.17
11440;BME280;5776;51.814;4.510;2023-03-01T11:10:34;102901.31;;;5.60;87.37
11440;BME280;5776;51.814;4.510;2023-03-01T11:13:17;102901.31;;;5.60;87.46
11440;BME280;5776;51.814;4.510;2023-03-01T11:15:59;102903.59;;;5.63;88.60
11440;BME280;5776;51.814;4.510;2023-03-01T11:18:26;102898.00;;;5.65;87.98
11440;BME280;5776;51.814;4.510;2023-03-01T11:21:04;102900.91;;;5.76;88.21
11440;BME280;5776;51.814;4.510;2023-03-01T11:23:32;102884.34;;;5.79;88.37
11440;BME280;5776;51.814;4.510;2023-03-01T11:26:01;102886.41;;;5.77;87.76
11440;BME280;5776;51.814;4.510;2023-03-01T11:28:30;102883.50;;;5.85;87.83
11440;BME280;5776;51.814;4.510;2023-03-01T11:31:03;102877.72;;;5.95;86.43
11440;BME280;5776;51.814;4.510;2023-03-01T11:36:42;102874.81;;;6.03;84.45
11440;BME280;5776;51.814;4.510;2023-03-01T11:42:49;102870.66;;;6.14;84.10
11440;BME280;5776;51.814;4.510;2023-03-01T11:45:19;102862.56;;;6.14;84.27
11440;BME280;5776;51.814;4.510;2023-03-01T11:47:55;102855.13;;;6.10;86.00
11440;BME280;5776;51.814;4.510;2023-03-01T11:53:31;102843.69;;;6.08;84.46
11440;BME280;5776;51.814;4.510;2023-03-01T11:56:09;102848.25;;;6.14;85.27
11440;BME280;5776;51.814;4.510;2023-03-01T12:20:51;102835.16;;;6.31;80.74
11440;BME280;5776;51.814;4.510;2023-03-01T12:23:49;102841.56;;;6.43;80.64
11440;BME280;5776;51.814;4.510;2023-03-01T12:32:29;102821.63;;;6.44;80.50
11440;BME280;5776;51.814;4.510;2023-03-01T12:35:36;102818.47;;;6.54;82.24
11440;BME280;5776;51.814;4.510;2023-03-01T12:38:30;102817.41;;;6.61;82.62
11440;BME280;5776;51.814;4.510;2023-03-01T12:47:48;102803.91;;;6.61;81.07
11440;BME280;5776;51.814;4.510;2023-03-01T12:50:24;102794.16;;;6.60;80.67
11440;BME280;5776;51.814;4.510;2023-03-01T12:52:54;102791.28;;;6.55;81.10
11440;BME280;5776;51.814;4.510;2023-03-01T12:55:39;102794.78;;;6.56;80.92
11440;BME280;5776;51.814;4.510;2023-03-01T12:58:32;102795.88;;;6.41;80.89
11440;BME280;5776;51.814;4.510;2023-03-01T13:15:35;102773.59;;;6.59;80.36
11440;BME280;5776;51.814;4.510;2023-03-01T13:18:27;102767.41;;;6.52;81.59
11440;BME280;5776;51.814;4.510;2023-03-01T13:20:55;102759.91;;;6.54;80.92
11440;BME280;5776;51.814;4.510;2023-03-01T13:31:55;102753.47;;;6.55;80.24
11440;BME280;5776;51.814;4.510;2023-03-01T13:34:03;102742.69;;;6.55;80.11
11440;BME280;5776;51.814;4.510;2023-03-01T13:39:04;102746.63;;;6.53;79.79
11440;BME280;5776;51.814;4.510;2023-03-01T13:44:25;102730.63;;;6.58;80.92
11440;BME280;5776;51.814;4.510;2023-03-01T13:46:57;102729.63;;;6.52;79.89
11440;BME280;5776;51.814;4.510;2023-03-01T13:49:31;102721.88;;;6.62;81.96
11440;BME280;5776;51.814;4.510;2023-03-01T13:52:01;102714.63;;;6.56;80.88
11440;BME280;5776;51.814;4.510;2023-03-01T13:54:32;102705.72;;;6.56;82.61
11440;BME280;5776;51.814;4.510;2023-03-01T13:56:59;102706.97;;;6.53;82.32
11440;BME280;5776;51.814;4.510;2023-03-01T13:59:26;102703.47;;;6.46;81.67
11440;BME280;5776;51.814;4.510;2023-03-01T14:01:58;102698.88;;;6.53;82.16
11440;BME280;5776;51.814;4.510;2023-03-01T14:04:30;102697.22;;;6.52;81.99
11440;BME280;5776;51.814;4.510;2023-03-01T14:07:25;102683.75;;;6.45;81.20
11440;BME280;5776;51.814;4.510;2023-03-01T14:09:56;102689.97;;;6.46;80.89
11440;BME280;5776;51.814;4.510;2023-03-01T14:20:22;102673.56;;;6.47;80.73
11440;BME280;5776;51.814;4.510;2023-03-01T14:22:51;102670.00;;;6.47;81.25
11440;BME280;5776;51.814;4.510;2023-03-01T14:25:20;102661.25;;;6.58;82.33
11440;BME280;5776;51.814;4.510;2023-03-01T14:27:56;102659.06;;;6.74;84.33
11440;BME280;5776;51.814;4.510;2023-03-01T14:30:30;102648.09;;;6.68;82.57
11440;BME280;5776;51.814;4.510;2023-03-01T14:32:59;102639.63;;;6.65;82.66
11440;BME280;5776;51.814;4.510;2023-03-01T14:35:29;102632.78;;;6.62;82.90
11440;BME280;5776;51.814;4.510;2023-03-01T14:37:55;102638.78;;;6.64;83.54
11440;BME280;5776;51.814;4.510;2023-03-01T14:40:22;102625.50;;;6.63;84.08
11440;BME280;5776;51.814;4.510;2023-03-01T14:42:50;102615.53;;;6.63;85.03
11440;BME280;5776;51.814;4.510;2023-03-01T14:45:16;102621.75;;;6.64;85.57
11440;BME280;5776;51.814;4.510;2023-03-01T14:47:44;102620.94;;;6.63;85.28
11440;BME280;5776;51.814;4.510;2023-03-01T14:50:26;102627.16;;;6.64;85.75
11440;BME280;5776;51.814;4.510;2023-03-01T14:52:59;102624.25;;;6.65;86.30
11440;BME280;5776;51.814;4.510;2023-03-01T14:55:30;102624.25;;;6.65;84.94
11440;BME280;5776;51.814;4.510;2023-03-01T14:57:57;102621.31;;;6.67;86.07
11440;BME280;5776;51.814;4.510;2023-03-01T15:00:26;102616.75;;;6.67;85.33
11440;BME280;5776;51.814;4.510;2023-03-01T15:02:56;102620.28;;;6.68;86.52
11440;BME280;5776;51.814;4.510;2023-03-01T15:05:32;102611.13;;;6.69;85.97
11440;BME280;5776;51.814;4.510;2023-03-01T15:08:01;102613.63;;;6.70;85.32
11440;BME280;5776;51.814;4.510;2023-03-01T15:10:30;102614.63;;;6.69;86.82